KLIT/LIT METAR and TAF weather

Enter ICAO airport designator
Station Type Date Time Source
KLIT METAR 2022/06/27 07:53 UTC NOAA

KLIT 270753Z 03010KT 10SM SCT035 BKN060 BKN250 26/17 A3016 RMK AO2 SLP211 T02560172


Station Type Date Time Source
KLIT Decoded METAR 2022/06/27 07:53 UTC NOAA

LITTLE ROCK ADAMS FIELD, AR, United States (KLIT) 34-44N 92-14W 79M
Jun 27, 2022 - 03:53 AM EDT / 2022.06.27 0753 UTC
Wind: from the NNE (030 degrees) at 12 MPH (10 KT):0
Visibility: 10 mile(s):0
Sky conditions: mostly cloudy
Temperature: 78.1 F (25.6 C)
Dew Point: 63.0 F (17.2 C)
Relative Humidity: 59%
Pressure (altimeter): 30.16 in. Hg (1021 hPa)
ob: KLIT 270753Z 03010KT 10SM SCT035 BKN060 BKN250 26/17 A3016 RMK AO2 SLP211 T02560172
cycle: 8

Station Type Date Time Source
KLIT TAF 2022/06/27 06:30 UTC NOAA

TAF KLIT 270527Z 2706/2806 03006KT P6SM BKN050
FM270900 04008KT P6SM SCT050 BKN250
FM271500 05010G18KT P6SM BKN250
FM280100 06006KT P6SM SCT250

Example: see airport list